createdAt,value
2019-06-15T00:01:48.060Z,21.80
2019-06-15T00:04:18.568Z,21.80
2019-06-15T00:06:49.068Z,21.80
2019-06-15T00:09:19.537Z,21.80
2019-06-15T00:11:50.037Z,21.70
2019-06-15T00:14:20.555Z,21.70
2019-06-15T00:16:51.011Z,21.60
2019-06-15T00:19:21.533Z,21.50
2019-06-15T00:21:52.022Z,21.50
2019-06-15T00:24:34.576Z,21.50
2019-06-15T00:26:54.790Z,21.40
2019-06-15T00:29:25.258Z,21.40
2019-06-15T00:31:55.753Z,21.40
2019-06-15T00:34:26.268Z,21.50
2019-06-15T00:36:56.841Z,21.50
2019-06-15T00:39:27.327Z,21.40
2019-06-15T00:41:57.900Z,21.50
2019-06-15T00:44:29.467Z,21.40
2019-06-15T00:46:59.934Z,21.30
2019-06-15T00:49:30.487Z,21.30
2019-06-15T00:52:01.048Z,21.30
2019-06-15T00:54:31.548Z,21.20
2019-06-15T00:57:02.052Z,21.10
2019-06-15T00:59:32.529Z,21.00
2019-06-15T01:02:03.028Z,20.90
2019-06-15T01:04:33.532Z,20.90
2019-06-15T01:07:04.019Z,20.90
2019-06-15T01:09:34.516Z,20.80
2019-06-15T01:12:05.228Z,20.90
2019-06-15T01:14:35.798Z,20.90
2019-06-15T01:17:06.355Z,20.90
2019-06-15T01:19:36.865Z,20.80
2019-06-15T01:22:07.376Z,20.90
2019-06-15T01:24:37.840Z,20.90
2019-06-15T01:27:08.339Z,20.90
2019-06-15T01:29:38.832Z,20.60
2019-06-15T01:32:09.324Z,20.30
2019-06-15T01:34:39.795Z,20.00
2019-06-15T01:37:10.275Z,20.20
2019-06-15T01:39:40.765Z,20.30
2019-06-15T01:42:11.749Z,20.50
2019-06-15T01:44:42.216Z,20.60
2019-06-15T01:47:12.719Z,20.60
2019-06-15T01:49:43.200Z,20.60
2019-06-15T01:52:13.706Z,20.60
2019-06-15T01:54:44.167Z,20.60
2019-06-15T01:57:15.337Z,20.70
2019-06-15T01:59:45.807Z,20.70
2019-06-15T02:02:16.316Z,20.70
2019-06-15T02:04:46.794Z,20.70
2019-06-15T02:07:17.335Z,20.60
2019-06-15T02:09:47.837Z,20.50
2019-06-15T02:12:18.302Z,20.50
2019-06-15T02:14:48.817Z,20.40
2019-06-15T02:17:19.321Z,20.40
2019-06-15T02:19:49.799Z,20.50
2019-06-15T02:22:20.313Z,20.50
2019-06-15T02:24:50.777Z,20.50
2019-06-15T02:27:21.280Z,20.50
2019-06-15T02:29:51.761Z,20.50
2019-06-15T02:32:22.266Z,20.50
2019-06-15T02:34:52.729Z,20.30
2019-06-15T02:37:23.227Z,20.20
2019-06-15T02:39:53.762Z,20.20
2019-06-15T02:42:24.342Z,20.30
2019-06-15T02:44:54.810Z,20.30
2019-06-15T02:47:25.315Z,20.30
2019-06-15T02:49:55.837Z,20.30
2019-06-15T02:52:26.421Z,20.30
2019-06-15T02:54:56.894Z,20.30
2019-06-15T02:57:27.389Z,20.40
2019-06-15T02:59:57.896Z,20.30
2019-06-15T03:02:28.371Z,20.30
2019-06-15T03:04:58.892Z,20.20
2019-06-15T03:07:29.420Z,20.20
2019-06-15T03:10:00.731Z,20.10
2019-06-15T03:12:31.773Z,20.10
2019-06-15T03:15:02.292Z,20.10
2019-06-15T03:17:32.771Z,20.10
2019-06-15T03:20:04.806Z,20.10
2019-06-15T03:22:35.472Z,20.10
2019-06-15T03:25:26.806Z,20.10
2019-06-15T03:27:57.299Z,20.20
2019-06-15T03:30:27.785Z,20.20
2019-06-15T03:32:58.281Z,20.20
2019-06-15T03:35:28.763Z,20.20
2019-06-15T03:37:59.330Z,20.30
2019-06-15T03:40:29.787Z,20.30
2019-06-15T03:43:00.300Z,20.30
2019-06-15T03:45:30.764Z,20.20
2019-06-15T03:48:01.280Z,20.30
2019-06-15T03:50:31.737Z,20.30
2019-06-15T03:53:02.254Z,20.40
2019-06-15T03:55:32.765Z,20.30
2019-06-15T03:58:03.311Z,20.30
2019-06-15T04:00:45.922Z,20.30
2019-06-15T04:03:16.701Z,20.30
2019-06-15T04:05:47.267Z,20.40
2019-06-15T04:08:17.750Z,20.40
2019-06-15T04:10:48.252Z,20.50
2019-06-15T04:13:18.722Z,20.60
2019-06-15T04:15:49.276Z,20.60
2019-06-15T04:18:19.799Z,20.60
2019-06-15T04:20:50.267Z,20.70
2019-06-15T04:23:20.783Z,20.70
2019-06-15T04:25:51.453Z,20.70
2019-06-15T04:28:22.032Z,20.70
2019-06-15T04:30:52.544Z,20.70
2019-06-15T04:33:23.013Z,20.70
2019-06-15T04:35:53.532Z,20.70
2019-06-15T04:38:24.002Z,20.80
2019-06-15T04:40:54.517Z,20.80
2019-06-15T04:43:25.020Z,20.90
2019-06-15T04:45:55.488Z,20.90
2019-06-15T04:48:25.993Z,20.90
2019-06-15T04:50:56.463Z,20.90
2019-06-15T04:53:26.966Z,20.90
2019-06-15T04:55:57.434Z,21.00
2019-06-15T04:58:27.974Z,21.00
2019-06-15T05:00:58.438Z,21.00
2019-06-15T05:03:28.951Z,21.10
2019-06-15T05:05:59.416Z,21.10
2019-06-15T05:08:29.915Z,21.10
2019-06-15T05:11:03.446Z,21.20
2019-06-15T05:13:32.676Z,21.20
2019-06-15T05:16:03.178Z,21.30
2019-06-15T05:18:33.673Z,21.30
2019-06-15T05:21:04.172Z,21.30
2019-06-15T05:23:34.643Z,21.30
2019-06-15T05:26:05.654Z,21.30
2019-06-15T05:28:36.187Z,21.40
2019-06-15T05:31:06.668Z,21.40
2019-06-15T05:33:37.178Z,21.40
2019-06-15T05:36:07.682Z,21.50
2019-06-15T05:38:38.198Z,21.60
2019-06-15T05:41:09.333Z,21.60
2019-06-15T05:43:45.996Z,21.70
2019-06-15T05:46:16.600Z,21.80
2019-06-15T05:48:47.110Z,21.80
2019-06-15T05:51:17.575Z,21.90
2019-06-15T05:53:48.084Z,22.00
2019-06-15T05:56:18.576Z,22.00
2019-06-15T05:58:49.049Z,22.00
2019-06-15T06:01:19.576Z,22.10
2019-06-15T06:03:50.035Z,22.20
2019-06-15T06:06:20.526Z,22.30
2019-06-15T06:08:51.068Z,22.40
2019-06-15T06:11:21.608Z,22.50
2019-06-15T06:13:52.103Z,22.60
2019-06-15T06:16:22.601Z,22.60
2019-06-15T06:18:53.091Z,22.70
2019-06-15T06:21:23.581Z,22.80
2019-06-15T06:23:54.068Z,22.90
2019-06-15T06:26:24.578Z,22.90
2019-06-15T06:28:57.434Z,23.00
2019-06-15T06:31:27.261Z,23.10
2019-06-15T06:33:57.734Z,23.20
2019-06-15T06:36:29.333Z,23.30
2019-06-15T06:38:59.874Z,23.30
2019-06-15T06:41:31.035Z,23.40
2019-06-15T06:44:01.512Z,23.60
2019-06-15T06:46:33.376Z,23.60
2019-06-15T06:49:03.875Z,23.70
2019-06-15T06:51:34.385Z,23.70
2019-06-15T06:54:05.088Z,23.80
2019-06-15T06:56:35.598Z,23.90
2019-06-15T06:59:06.074Z,24.00
2019-06-15T07:01:36.584Z,24.00
2019-06-15T07:04:07.087Z,24.10
2019-06-15T07:06:37.553Z,24.20
2019-06-15T07:09:08.494Z,24.30
2019-06-15T07:11:38.967Z,24.40
2019-06-15T07:14:09.464Z,24.40
2019-06-15T07:16:40.013Z,24.50
2019-06-15T07:19:10.508Z,24.60
2019-06-15T07:21:40.990Z,24.70
2019-06-15T07:24:11.494Z,24.80
2019-06-15T07:26:41.962Z,24.90
2019-06-15T07:29:12.543Z,25.00
2019-06-15T07:31:43.051Z,25.10
2019-06-15T07:34:14.853Z,25.30
2019-06-15T07:36:45.338Z,25.30
2019-06-15T07:39:15.864Z,25.40
2019-06-15T07:41:46.368Z,25.50
2019-06-15T07:44:16.873Z,25.60
2019-06-15T07:46:47.422Z,25.60
2019-06-15T07:49:17.898Z,25.70
2019-06-15T07:51:48.477Z,25.80
2019-06-15T07:54:18.979Z,25.90
2019-06-15T07:56:49.513Z,26.00
2019-06-15T07:59:20.061Z,26.10
2019-06-15T08:01:50.597Z,26.10
2019-06-15T08:04:21.085Z,26.20
2019-06-15T08:06:51.628Z,26.20
2019-06-15T08:09:22.135Z,26.40
2019-06-15T08:11:52.710Z,26.40
2019-06-15T08:14:23.373Z,26.50
2019-06-15T08:16:54.390Z,26.60
2019-06-15T08:19:24.863Z,26.70
2019-06-15T08:21:55.437Z,26.80
2019-06-15T08:24:25.913Z,26.90
2019-06-15T08:26:56.417Z,26.90
2019-06-15T08:29:26.896Z,27.00
2019-06-15T08:31:57.386Z,27.10
2019-06-15T08:34:28.254Z,27.20
2019-06-15T08:36:58.788Z,27.20
2019-06-15T08:39:29.253Z,27.20
2019-06-15T08:41:59.754Z,27.30
2019-06-15T08:44:30.275Z,27.30
2019-06-15T08:47:00.753Z,27.30
2019-06-15T08:49:31.266Z,27.40
2019-06-15T08:52:04.217Z,27.40
2019-06-15T08:54:33.953Z,27.40
2019-06-15T08:57:04.624Z,27.50
2019-06-15T08:59:35.163Z,27.40
2019-06-15T09:02:05.764Z,27.40
2019-06-15T09:04:36.251Z,27.50
2019-06-15T09:07:06.771Z,27.60
2019-06-15T09:09:37.336Z,27.70
2019-06-15T09:12:07.840Z,27.70
2019-06-15T09:14:38.803Z,27.80
2019-06-15T09:17:09.305Z,27.90
2019-06-15T09:19:39.806Z,28.00
2019-06-15T09:22:10.313Z,28.10
2019-06-15T09:24:40.815Z,28.20
2019-06-15T09:27:11.321Z,28.30
2019-06-15T09:29:41.783Z,28.40
2019-06-15T09:32:12.293Z,28.40
2019-06-15T09:34:42.774Z,28.40
2019-06-15T09:37:13.265Z,28.30
2019-06-15T09:39:43.738Z,28.30
2019-06-15T09:42:14.240Z,28.40
2019-06-15T09:44:45.102Z,28.40
2019-06-15T09:47:15.601Z,28.60
2019-06-15T09:49:46.140Z,28.60
2019-06-15T09:52:16.793Z,28.70
2019-06-15T09:54:47.259Z,28.70
2019-06-15T09:57:17.754Z,28.70
2019-06-15T09:59:48.233Z,28.80
2019-06-15T10:02:18.813Z,29.00
2019-06-15T10:04:49.345Z,29.20
2019-06-15T10:07:19.836Z,29.30
2019-06-15T10:09:50.309Z,29.40
2019-06-15T10:12:20.807Z,29.40
2019-06-15T10:14:51.291Z,29.60
2019-06-15T10:17:21.862Z,29.60
2019-06-15T10:19:52.361Z,29.60
2019-06-15T10:22:22.863Z,29.80
2019-06-15T10:24:53.337Z,30.00
2019-06-15T10:27:23.839Z,30.20
2019-06-15T10:29:54.396Z,30.40
2019-06-15T10:32:24.919Z,30.60
2019-06-15T10:34:56.208Z,30.90
2019-06-15T10:37:26.712Z,31.20
2019-06-15T10:39:58.758Z,31.30
2019-06-15T10:42:29.265Z,31.40
2019-06-15T10:44:59.766Z,31.40
2019-06-15T10:47:30.267Z,31.40
2019-06-15T10:50:00.790Z,31.60
2019-06-15T10:52:31.404Z,31.90
2019-06-15T10:55:02.559Z,31.70
2019-06-15T10:57:33.045Z,31.40
2019-06-15T11:00:09.052Z,31.20
2019-06-15T11:02:41.216Z,31.30
2019-06-15T11:05:15.445Z,31.30
2019-06-15T11:07:45.912Z,31.20
2019-06-15T11:10:23.031Z,31.00
2019-06-15T11:12:53.638Z,30.80
2019-06-15T11:15:24.249Z,30.60
2019-06-15T11:17:54.820Z,30.60
2019-06-15T11:20:25.343Z,30.60
2019-06-15T11:22:55.845Z,30.80
2019-06-15T11:25:26.686Z,31.10
2019-06-15T11:27:57.190Z,31.50
2019-06-15T11:30:27.694Z,31.90
2019-06-15T11:32:58.216Z,32.30
2019-06-15T11:35:28.694Z,32.50
2019-06-15T11:37:59.261Z,32.80
2019-06-15T11:40:29.809Z,33.30
2019-06-15T11:43:00.312Z,33.80
2019-06-15T11:45:32.460Z,34.00
2019-06-15T11:48:02.958Z,34.40
2019-06-15T11:50:33.566Z,34.70
2019-06-15T11:53:04.102Z,34.70
2019-06-15T11:55:39.545Z,34.90
2019-06-15T11:58:06.875Z,35.20
2019-06-15T12:01:02.376Z,35.50
2019-06-15T12:03:32.883Z,35.50
2019-06-15T12:06:03.395Z,36.00
2019-06-15T12:08:33.931Z,36.20
2019-06-15T12:11:04.430Z,36.50
2019-06-15T12:13:34.905Z,36.60
2019-06-15T12:16:05.487Z,36.60
2019-06-15T12:18:35.960Z,36.60
2019-06-15T12:21:06.486Z,36.60
2019-06-15T12:23:37.001Z,36.70
2019-06-15T12:26:07.498Z,36.90
2019-06-15T12:28:38.580Z,36.90
2019-06-15T12:31:09.278Z,36.90
2019-06-15T12:33:39.755Z,36.70
2019-06-15T12:36:18.842Z,36.90
2019-06-15T12:38:42.718Z,36.90
2019-06-15T12:41:13.218Z,37.00
2019-06-15T12:43:43.768Z,36.80
2019-06-15T12:46:14.270Z,36.60
2019-06-15T12:48:44.775Z,36.40
2019-06-15T12:51:15.247Z,36.40
2019-06-15T12:53:45.748Z,36.10
2019-06-15T12:56:16.217Z,36.10
2019-06-15T12:58:46.714Z,36.00
2019-06-15T13:01:17.198Z,35.90
2019-06-15T13:03:47.706Z,36.00
2019-06-15T13:06:18.200Z,36.40
2019-06-15T13:08:48.692Z,36.60
2019-06-15T13:11:19.222Z,36.80
2019-06-15T13:13:49.733Z,36.50
2019-06-15T13:16:20.207Z,36.00
2019-06-15T13:18:51.289Z,35.70
2019-06-15T13:21:21.801Z,35.60
2019-06-15T13:23:52.277Z,35.70
2019-06-15T13:26:22.861Z,35.90
2019-06-15T13:28:53.394Z,36.00
2019-06-15T13:31:23.998Z,36.10
2019-06-15T13:33:54.502Z,35.90
2019-06-15T13:36:25.087Z,35.30
2019-06-15T13:38:55.725Z,34.80
2019-06-15T13:41:26.224Z,34.20
2019-06-15T13:43:56.699Z,33.70
2019-06-15T13:46:27.272Z,33.60
2019-06-15T13:48:57.778Z,33.60
2019-06-15T13:51:28.278Z,33.70
2019-06-15T13:53:58.774Z,33.70
2019-06-15T13:56:29.265Z,33.70
2019-06-15T13:59:00.720Z,33.60
2019-06-15T14:01:34.412Z,33.60
2019-06-15T14:04:03.388Z,33.30
2019-06-15T14:06:33.859Z,33.10
2019-06-15T14:09:06.694Z,33.00
2019-06-15T14:11:37.180Z,32.80
2019-06-15T14:14:07.677Z,32.80
2019-06-15T14:16:39.028Z,32.60
2019-06-15T14:19:09.530Z,32.50
2019-06-15T14:21:40.011Z,32.50
2019-06-15T14:24:10.519Z,32.30
2019-06-15T14:26:41.048Z,32.40
2019-06-15T14:29:11.588Z,32.20
2019-06-15T14:31:50.321Z,32.20
2019-06-15T14:34:14.353Z,32.20
2019-06-15T14:36:44.928Z,32.10
2019-06-15T14:39:15.448Z,32.20
2019-06-15T14:41:49.984Z,32.20
2019-06-15T14:44:18.198Z,32.30
2019-06-15T14:46:48.740Z,32.50
2019-06-15T14:49:19.266Z,32.70
2019-06-15T14:51:51.094Z,33.10
2019-06-15T14:54:21.711Z,33.50
2019-06-15T14:56:52.235Z,33.70
2019-06-15T14:59:22.816Z,33.90
2019-06-15T15:02:09.078Z,34.00
2019-06-15T15:04:26.571Z,33.90
2019-06-15T15:06:57.243Z,33.70
2019-06-15T15:09:28.821Z,33.60
2019-06-15T15:12:00.536Z,33.40
2019-06-15T15:14:31.026Z,33.20
2019-06-15T15:17:01.579Z,33.10
2019-06-15T15:19:32.042Z,33.20
2019-06-15T15:22:02.558Z,33.30
2019-06-15T15:24:33.017Z,33.70
2019-06-15T15:27:03.536Z,33.70
2019-06-15T15:29:35.215Z,33.80
2019-06-15T15:32:07.980Z,33.70
2019-06-15T15:34:38.022Z,33.80
2019-06-15T15:37:09.429Z,33.90
2019-06-15T15:39:39.914Z,33.90
2019-06-15T15:42:10.429Z,33.80
2019-06-15T15:44:40.986Z,33.70
2019-06-15T15:47:11.501Z,33.60
2019-06-15T15:49:43.305Z,33.70
2019-06-15T15:52:13.849Z,33.80
2019-06-15T15:54:46.698Z,33.70
2019-06-15T15:57:17.198Z,33.50
2019-06-15T15:59:47.829Z,33.20
2019-06-15T16:02:18.315Z,33.00
2019-06-15T16:04:48.834Z,32.80
2019-06-15T16:07:20.276Z,33.00
2019-06-15T16:09:50.783Z,33.10
2019-06-15T16:12:21.264Z,33.10
2019-06-15T16:14:51.762Z,33.20
2019-06-15T16:17:22.633Z,33.20
2019-06-15T16:19:53.141Z,33.30
2019-06-15T16:22:26.165Z,33.60
2019-06-15T16:24:56.544Z,34.20
2019-06-15T16:27:27.023Z,34.90
2019-06-15T16:29:57.530Z,35.50
2019-06-15T16:32:28.006Z,35.90
2019-06-15T16:34:58.513Z,35.90
2019-06-15T16:37:28.984Z,35.70
2019-06-15T16:39:59.492Z,35.50
2019-06-15T16:42:29.962Z,35.50
2019-06-15T16:45:00.647Z,35.80
2019-06-15T16:47:32.027Z,36.10
2019-06-15T16:50:02.565Z,36.20
2019-06-15T16:52:33.129Z,36.30
2019-06-15T16:55:03.629Z,36.10
2019-06-15T16:57:34.131Z,35.80
2019-06-15T17:00:08.009Z,35.40
2019-06-15T17:02:38.535Z,35.00
2019-06-15T17:05:09.151Z,34.80
2019-06-15T17:07:39.667Z,34.60
2019-06-15T17:10:10.280Z,34.40
2019-06-15T17:12:40.799Z,34.30
2019-06-15T17:15:12.332Z,34.10
2019-06-15T17:17:42.887Z,34.00
2019-06-15T17:20:18.356Z,33.90
2019-06-15T17:22:49.013Z,33.90
2019-06-15T17:25:19.884Z,33.80
2019-06-15T17:27:50.381Z,33.70
2019-06-15T17:30:21.009Z,33.60
2019-06-15T17:32:51.578Z,33.30
2019-06-15T17:35:22.047Z,33.10
2019-06-15T17:37:52.553Z,32.80
2019-06-15T17:40:23.743Z,32.50
2019-06-15T17:42:54.445Z,32.20
2019-06-15T17:45:26.644Z,32.00
2019-06-15T17:47:57.359Z,31.80
2019-06-15T17:50:40.348Z,31.50
2019-06-15T17:53:10.852Z,31.30
2019-06-15T17:55:41.529Z,31.00
2019-06-15T17:58:12.041Z,30.80
2019-06-15T18:01:01.864Z,30.70
2019-06-15T18:03:32.377Z,30.60
2019-06-15T18:06:02.847Z,30.40
2019-06-15T18:08:33.352Z,30.20
2019-06-15T18:11:06.829Z,30.10
2019-06-15T18:13:37.554Z,29.90
2019-06-15T18:16:08.055Z,29.70
2019-06-15T18:18:38.576Z,29.60
2019-06-15T18:21:09.051Z,29.50
2019-06-15T18:23:39.561Z,29.30
2019-06-15T18:26:10.837Z,29.20
2019-06-15T18:28:41.382Z,29.00
2019-06-15T18:31:11.891Z,28.90
2019-06-15T18:33:42.361Z,28.80
2019-06-15T18:36:12.869Z,28.70
2019-06-15T18:38:43.377Z,28.50
2019-06-15T18:41:13.858Z,28.40
2019-06-15T18:43:45.897Z,28.20
2019-06-15T18:46:16.399Z,28.10
2019-06-15T18:48:47.187Z,28.00
2019-06-15T18:51:17.655Z,27.90
2019-06-15T18:53:49.450Z,27.80
2019-06-15T18:56:19.945Z,27.70
2019-06-15T18:58:50.421Z,27.60
2019-06-15T19:01:20.912Z,27.50
2019-06-15T19:03:51.451Z,27.40
2019-06-15T19:06:21.938Z,27.40
2019-06-15T19:08:52.422Z,27.30
2019-06-15T19:11:22.918Z,27.10
2019-06-15T19:13:56.177Z,27.10
2019-06-15T19:16:25.637Z,26.90
2019-06-15T19:18:56.679Z,26.90
2019-06-15T19:21:27.288Z,26.80
2019-06-15T19:23:57.867Z,26.70
2019-06-15T19:26:28.340Z,26.70
2019-06-15T19:28:58.842Z,26.60
2019-06-15T19:31:29.321Z,26.50
2019-06-15T19:34:00.490Z,26.50
2019-06-15T19:36:31.003Z,26.40
2019-06-15T19:39:01.533Z,26.30
2019-06-15T19:41:32.088Z,26.30
2019-06-15T19:44:02.775Z,26.20
2019-06-15T19:46:33.309Z,26.20
2019-06-15T19:49:06.199Z,26.10
2019-06-15T19:51:36.391Z,26.10
2019-06-15T19:54:07.149Z,26.00
2019-06-15T19:56:38.433Z,25.90
2019-06-15T19:59:09.069Z,25.90
2019-06-15T20:01:39.584Z,25.80
2019-06-15T20:04:10.915Z,25.80
2019-06-15T20:06:41.741Z,25.80
2019-06-15T20:09:13.794Z,25.70
2019-06-15T20:11:46.883Z,25.60
2019-06-15T20:14:24.483Z,25.60
2019-06-15T20:16:56.108Z,25.60
2019-06-15T20:19:29.500Z,25.50
2019-06-15T20:22:00.794Z,25.40
2019-06-15T20:24:31.063Z,25.40
2019-06-15T20:27:01.566Z,25.30
2019-06-15T20:29:32.068Z,25.30
2019-06-15T20:32:02.588Z,25.30
2019-06-15T20:34:33.099Z,25.20
2019-06-15T20:37:03.678Z,25.10
2019-06-15T20:39:36.315Z,25.00
2019-06-15T20:42:07.866Z,24.90
2019-06-15T20:44:39.230Z,24.80
2019-06-15T20:47:10.677Z,24.80
2019-06-15T20:49:41.189Z,24.80
2019-06-15T20:52:11.665Z,24.70
2019-06-15T20:54:42.185Z,24.70
2019-06-15T20:57:12.658Z,24.60
2019-06-15T20:59:43.167Z,24.60
2019-06-15T21:02:15.999Z,24.60
2019-06-15T21:04:46.124Z,24.70
2019-06-15T21:07:16.591Z,24.70
2019-06-15T21:09:47.116Z,24.60
2019-06-15T21:12:17.683Z,24.50
2019-06-15T21:14:48.173Z,24.50
2019-06-15T21:17:18.711Z,24.40
2019-06-15T21:19:49.141Z,24.40
2019-06-15T21:22:19.642Z,24.40
2019-06-15T21:24:50.116Z,24.40
2019-06-15T21:27:20.612Z,24.40
2019-06-15T21:29:51.085Z,24.30
2019-06-15T21:32:21.629Z,24.30
2019-06-15T21:34:52.897Z,24.30
2019-06-15T21:37:25.920Z,24.20
2019-06-15T21:39:56.265Z,24.20
2019-06-15T21:42:26.887Z,24.10
2019-06-15T21:44:57.366Z,24.00
2019-06-15T21:47:27.841Z,24.00
2019-06-15T21:49:58.309Z,24.00
2019-06-15T21:52:28.833Z,24.00
2019-06-15T21:54:59.311Z,24.00
2019-06-15T21:57:29.981Z,24.00
2019-06-15T22:00:00.464Z,23.90
2019-06-15T22:02:30.974Z,23.80
2019-06-15T22:05:01.457Z,23.80
2019-06-15T22:07:31.952Z,23.70
2019-06-15T22:10:02.538Z,23.60
2019-06-15T22:12:33.022Z,23.60
2019-06-15T22:15:06.752Z,23.50
2019-06-15T22:17:37.102Z,23.50
2019-06-15T22:20:08.885Z,23.40
2019-06-15T22:22:39.528Z,23.30
2019-06-15T22:25:10.440Z,23.20
2019-06-15T22:27:40.930Z,23.10
2019-06-15T22:30:12.539Z,23.10
2019-06-15T22:32:43.046Z,23.00
2019-06-15T22:35:16.366Z,22.90
2019-06-15T22:37:46.747Z,22.90
2019-06-15T22:40:19.169Z,22.90
2019-06-15T22:42:49.640Z,22.80
2019-06-15T22:45:20.140Z,22.80
2019-06-15T22:47:50.643Z,22.80
2019-06-15T22:50:21.208Z,22.80
2019-06-15T22:52:51.676Z,22.90
2019-06-15T22:55:22.358Z,22.90
2019-06-15T22:57:52.897Z,22.80
2019-06-15T23:00:23.479Z,22.80
2019-06-15T23:02:56.532Z,22.90
2019-06-15T23:05:26.355Z,22.90
2019-06-15T23:07:56.995Z,22.90
2019-06-15T23:10:27.469Z,22.90
2019-06-15T23:12:57.977Z,22.90
2019-06-15T23:15:28.478Z,22.90
2019-06-15T23:17:58.969Z,22.90
2019-06-15T23:20:29.466Z,23.00
2019-06-15T23:22:59.945Z,23.00
2019-06-15T23:25:30.439Z,23.00
2019-06-15T23:28:00.930Z,23.00
2019-06-15T23:30:31.442Z,23.00
2019-06-15T23:33:01.886Z,23.00
2019-06-15T23:35:34.059Z,22.90
2019-06-15T23:38:06.506Z,22.90
2019-06-15T23:40:36.809Z,22.90
2019-06-15T23:43:07.295Z,22.90
2019-06-15T23:45:37.819Z,22.80
2019-06-15T23:48:08.260Z,22.80
2019-06-15T23:50:38.760Z,22.70
2019-06-15T23:53:09.227Z,22.70
2019-06-15T23:55:39.726Z,22.70
2019-06-15T23:58:10.234Z,22.60
